sensor_id;sensor_type;location;lat;lon;timestamp;P1;durP1;ratioP1;P2;durP2;ratioP2
15312;SDS011;7757;52.626;4.746;2023-04-03T00:00:58;3.28;;;0.80;;
15312;SDS011;7757;52.626;4.746;2023-04-03T00:03:44;4.05;;;1.00;;
15312;SDS011;7757;52.626;4.746;2023-04-03T00:06:30;4.03;;;1.15;;
15312;SDS011;7757;52.626;4.746;2023-04-03T00:09:17;8.50;;;1.40;;
15312;SDS011;7757;52.626;4.746;2023-04-03T00:12:02;4.13;;;1.00;;
15312;SDS011;7757;52.626;4.746;2023-04-03T00:14:48;3.13;;;0.80;;
15312;SDS011;7757;52.626;4.746;2023-04-03T00:17:34;4.85;;;1.38;;
15312;SDS011;7757;52.626;4.746;2023-04-03T00:20:20;3.47;;;1.00;;
15312;SDS011;7757;52.626;4.746;2023-04-03T00:23:05;5.68;;;1.10;;
15312;SDS011;7757;52.626;4.746;2023-04-03T00:25:52;4.82;;;1.08;;
15312;SDS011;7757;52.626;4.746;2023-04-03T00:28:38;5.03;;;1.10;;
15312;SDS011;7757;52.626;4.746;2023-04-03T00:31:23;2.90;;;0.88;;
15312;SDS011;7757;52.626;4.746;2023-04-03T00:34:09;3.92;;;0.98;;
15312;SDS011;7757;52.626;4.746;2023-04-03T00:36:54;3.40;;;0.95;;
15312;SDS011;7757;52.626;4.746;2023-04-03T00:39:39;2.40;;;0.80;;
15312;SDS011;7757;52.626;4.746;2023-04-03T00:42:26;4.07;;;1.10;;
15312;SDS011;7757;52.626;4.746;2023-04-03T00:48:20;4.82;;;1.63;;
15312;SDS011;7757;52.626;4.746;2023-04-03T00:51:11;4.45;;;1.20;;
15312;SDS011;7757;52.626;4.746;2023-04-03T00:53:59;4.57;;;1.10;;
15312;SDS011;7757;52.626;4.746;2023-04-03T00:56:47;4.95;;;1.23;;
15312;SDS011;7757;52.626;4.746;2023-04-03T00:59:36;7.55;;;1.10;;
15312;SDS011;7757;52.626;4.746;2023-04-03T01:02:25;9.80;;;1.40;;
15312;SDS011;7757;52.626;4.746;2023-04-03T01:05:10;3.67;;;1.00;;
15312;SDS011;7757;52.626;4.746;2023-04-03T01:07:57;5.85;;;0.90;;
15312;SDS011;7757;52.626;4.746;2023-04-03T01:10:43;3.45;;;1.02;;
15312;SDS011;7757;52.626;4.746;2023-04-03T01:13:30;3.00;;;0.95;;
15312;SDS011;7757;52.626;4.746;2023-04-03T01:16:17;3.83;;;0.82;;
15312;SDS011;7757;52.626;4.746;2023-04-03T01:19:03;4.68;;;1.10;;
15312;SDS011;7757;52.626;4.746;2023-04-03T01:22:09;2.58;;;0.88;;
15312;SDS011;7757;52.626;4.746;2023-04-03T01:25:04;4.82;;;1.10;;
15312;SDS011;7757;52.626;4.746;2023-04-03T01:27:49;4.38;;;0.90;;
15312;SDS011;7757;52.626;4.746;2023-04-03T01:30:36;5.22;;;1.10;;
15312;SDS011;7757;52.626;4.746;2023-04-03T01:33:30;3.40;;;1.00;;
15312;SDS011;7757;52.626;4.746;2023-04-03T01:36:17;6.45;;;1.10;;
15312;SDS011;7757;52.626;4.746;2023-04-03T01:39:05;4.30;;;1.10;;
15312;SDS011;7757;52.626;4.746;2023-04-03T01:41:50;4.88;;;1.30;;
15312;SDS011;7757;52.626;4.746;2023-04-03T01:44:36;5.40;;;1.33;;
15312;SDS011;7757;52.626;4.746;2023-04-03T01:47:21;5.40;;;1.02;;
15312;SDS011;7757;52.626;4.746;2023-04-03T01:50:08;4.60;;;1.05;;
15312;SDS011;7757;52.626;4.746;2023-04-03T01:52:54;3.22;;;0.75;;
15312;SDS011;7757;52.626;4.746;2023-04-03T01:55:39;3.20;;;1.00;;
15312;SDS011;7757;52.626;4.746;2023-04-03T01:58:25;2.67;;;0.82;;
15312;SDS011;7757;52.626;4.746;2023-04-03T02:01:10;3.85;;;0.98;;
15312;SDS011;7757;52.626;4.746;2023-04-03T02:03:55;3.60;;;0.88;;
15312;SDS011;7757;52.626;4.746;2023-04-03T02:06:42;4.30;;;1.08;;
15312;SDS011;7757;52.626;4.746;2023-04-03T02:09:28;3.92;;;0.98;;
15312;SDS011;7757;52.626;4.746;2023-04-03T02:12:13;3.33;;;0.98;;
15312;SDS011;7757;52.626;4.746;2023-04-03T02:14:58;3.60;;;1.00;;
15312;SDS011;7757;52.626;4.746;2023-04-03T02:17:44;5.57;;;1.25;;
15312;SDS011;7757;52.626;4.746;2023-04-03T02:20:30;3.25;;;0.98;;
15312;SDS011;7757;52.626;4.746;2023-04-03T02:23:16;3.88;;;1.00;;
15312;SDS011;7757;52.626;4.746;2023-04-03T02:26:06;4.55;;;1.00;;
15312;SDS011;7757;52.626;4.746;2023-04-03T02:28:52;3.53;;;1.02;;
15312;SDS011;7757;52.626;4.746;2023-04-03T02:31:37;5.25;;;0.93;;
15312;SDS011;7757;52.626;4.746;2023-04-03T02:34:23;2.55;;;0.85;;
15312;SDS011;7757;52.626;4.746;2023-04-03T02:37:09;3.75;;;0.95;;
15312;SDS011;7757;52.626;4.746;2023-04-03T02:39:56;4.03;;;0.98;;
15312;SDS011;7757;52.626;4.746;2023-04-03T02:42:41;3.03;;;1.00;;
15312;SDS011;7757;52.626;4.746;2023-04-03T02:45:26;2.22;;;0.90;;
15312;SDS011;7757;52.626;4.746;2023-04-03T02:48:12;6.03;;;1.27;;
15312;SDS011;7757;52.626;4.746;2023-04-03T02:50:58;2.30;;;0.90;;
15312;SDS011;7757;52.626;4.746;2023-04-03T02:53:44;4.43;;;1.02;;
15312;SDS011;7757;52.626;4.746;2023-04-03T02:56:35;4.75;;;0.98;;
15312;SDS011;7757;52.626;4.746;2023-04-03T02:59:20;4.03;;;0.95;;
15312;SDS011;7757;52.626;4.746;2023-04-03T03:02:05;4.40;;;1.02;;
15312;SDS011;7757;52.626;4.746;2023-04-03T03:04:51;3.58;;;1.08;;
15312;SDS011;7757;52.626;4.746;2023-04-03T03:07:36;5.30;;;1.02;;
15312;SDS011;7757;52.626;4.746;2023-04-03T03:10:21;4.70;;;1.00;;
15312;SDS011;7757;52.626;4.746;2023-04-03T03:13:08;4.68;;;1.13;;
15312;SDS011;7757;52.626;4.746;2023-04-03T03:15:54;3.67;;;1.05;;
15312;SDS011;7757;52.626;4.746;2023-04-03T03:18:40;2.80;;;1.00;;
15312;SDS011;7757;52.626;4.746;2023-04-03T03:21:26;4.47;;;1.17;;
15312;SDS011;7757;52.626;4.746;2023-04-03T03:24:11;5.65;;;1.00;;
15312;SDS011;7757;52.626;4.746;2023-04-03T03:26:56;3.25;;;1.08;;
15312;SDS011;7757;52.626;4.746;2023-04-03T03:29:44;3.97;;;0.93;;
15312;SDS011;7757;52.626;4.746;2023-04-03T03:32:29;4.45;;;1.10;;
15312;SDS011;7757;52.626;4.746;2023-04-03T03:35:14;4.07;;;0.80;;
15312;SDS011;7757;52.626;4.746;2023-04-03T03:38:00;3.25;;;1.10;;
15312;SDS011;7757;52.626;4.746;2023-04-03T03:40:46;2.67;;;0.88;;
15312;SDS011;7757;52.626;4.746;2023-04-03T03:43:31;3.28;;;0.95;;
15312;SDS011;7757;52.626;4.746;2023-04-03T03:46:18;2.90;;;1.10;;
15312;SDS011;7757;52.626;4.746;2023-04-03T03:49:03;2.00;;;0.80;;
15312;SDS011;7757;52.626;4.746;2023-04-03T03:51:49;3.90;;;1.00;;
15312;SDS011;7757;52.626;4.746;2023-04-03T03:54:35;3.55;;;1.20;;
15312;SDS011;7757;52.626;4.746;2023-04-03T03:57:21;2.63;;;0.93;;
15312;SDS011;7757;52.626;4.746;2023-04-03T04:00:06;2.70;;;0.90;;
15312;SDS011;7757;52.626;4.746;2023-04-03T04:02:54;2.20;;;0.85;;
15312;SDS011;7757;52.626;4.746;2023-04-03T04:05:39;4.72;;;1.08;;
15312;SDS011;7757;52.626;4.746;2023-04-03T04:08:24;2.92;;;0.90;;
15312;SDS011;7757;52.626;4.746;2023-04-03T04:11:10;3.00;;;0.95;;
15312;SDS011;7757;52.626;4.746;2023-04-03T04:13:55;3.38;;;0.90;;
15312;SDS011;7757;52.626;4.746;2023-04-03T04:16:41;3.30;;;0.88;;
15312;SDS011;7757;52.626;4.746;2023-04-03T04:19:28;3.30;;;0.82;;
15312;SDS011;7757;52.626;4.746;2023-04-03T04:22:13;6.13;;;1.30;;
15312;SDS011;7757;52.626;4.746;2023-04-03T04:24:59;2.92;;;0.95;;
15312;SDS011;7757;52.626;4.746;2023-04-03T04:27:44;2.90;;;0.88;;
15312;SDS011;7757;52.626;4.746;2023-04-03T04:30:29;2.05;;;0.80;;
15312;SDS011;7757;52.626;4.746;2023-04-03T04:33:15;4.80;;;1.20;;
15312;SDS011;7757;52.626;4.746;2023-04-03T04:36:01;7.28;;;1.20;;
15312;SDS011;7757;52.626;4.746;2023-04-03T04:38:47;4.15;;;0.90;;
15312;SDS011;7757;52.626;4.746;2023-04-03T04:41:32;7.03;;;1.10;;
15312;SDS011;7757;52.626;4.746;2023-04-03T04:44:18;3.90;;;1.00;;
15312;SDS011;7757;52.626;4.746;2023-04-03T04:47:04;3.53;;;0.98;;
15312;SDS011;7757;52.626;4.746;2023-04-03T04:49:49;4.68;;;1.02;;
15312;SDS011;7757;52.626;4.746;2023-04-03T04:52:36;2.75;;;0.70;;
15312;SDS011;7757;52.626;4.746;2023-04-03T04:55:22;4.53;;;1.15;;
15312;SDS011;7757;52.626;4.746;2023-04-03T04:58:07;4.43;;;0.93;;
15312;SDS011;7757;52.626;4.746;2023-04-03T05:00:57;3.78;;;1.08;;
15312;SDS011;7757;52.626;4.746;2023-04-03T05:03:44;2.97;;;1.05;;
15312;SDS011;7757;52.626;4.746;2023-04-03T05:06:29;3.67;;;0.90;;
15312;SDS011;7757;52.626;4.746;2023-04-03T05:09:17;2.55;;;0.85;;
15312;SDS011;7757;52.626;4.746;2023-04-03T05:12:04;3.20;;;0.90;;
15312;SDS011;7757;52.626;4.746;2023-04-03T05:14:49;4.70;;;1.02;;
15312;SDS011;7757;52.626;4.746;2023-04-03T05:17:35;4.78;;;1.02;;
15312;SDS011;7757;52.626;4.746;2023-04-03T05:20:20;6.47;;;1.02;;
15312;SDS011;7757;52.626;4.746;2023-04-03T05:23:05;2.97;;;1.02;;
15312;SDS011;7757;52.626;4.746;2023-04-03T05:25:55;3.67;;;0.85;;
15312;SDS011;7757;52.626;4.746;2023-04-03T05:28:40;5.25;;;0.82;;
15312;SDS011;7757;52.626;4.746;2023-04-03T05:31:25;4.88;;;1.08;;
15312;SDS011;7757;52.626;4.746;2023-04-03T05:34:13;5.35;;;1.00;;
15312;SDS011;7757;52.626;4.746;2023-04-03T05:36:58;4.32;;;1.10;;
15312;SDS011;7757;52.626;4.746;2023-04-03T05:39:44;4.97;;;1.02;;
15312;SDS011;7757;52.626;4.746;2023-04-03T05:42:31;3.70;;;1.00;;
15312;SDS011;7757;52.626;4.746;2023-04-03T05:45:18;8.60;;;1.50;;
15312;SDS011;7757;52.626;4.746;2023-04-03T05:48:03;8.60;;;1.55;;
15312;SDS011;7757;52.626;4.746;2023-04-03T05:50:49;12.10;;;1.70;;
15312;SDS011;7757;52.626;4.746;2023-04-03T05:53:35;11.93;;;2.13;;
15312;SDS011;7757;52.626;4.746;2023-04-03T05:56:22;15.13;;;2.03;;
15312;SDS011;7757;52.626;4.746;2023-04-03T05:59:09;14.05;;;1.90;;
15312;SDS011;7757;52.626;4.746;2023-04-03T06:01:54;13.95;;;2.20;;
15312;SDS011;7757;52.626;4.746;2023-04-03T06:04:40;11.32;;;1.98;;
15312;SDS011;7757;52.626;4.746;2023-04-03T06:07:25;9.43;;;1.80;;
15312;SDS011;7757;52.626;4.746;2023-04-03T06:10:12;11.15;;;1.80;;
15312;SDS011;7757;52.626;4.746;2023-04-03T06:12:57;18.25;;;2.13;;
15312;SDS011;7757;52.626;4.746;2023-04-03T06:15:44;16.17;;;1.88;;
15312;SDS011;7757;52.626;4.746;2023-04-03T06:18:32;10.50;;;1.88;;
15312;SDS011;7757;52.626;4.746;2023-04-03T06:21:17;9.88;;;1.73;;
15312;SDS011;7757;52.626;4.746;2023-04-03T06:24:03;13.10;;;1.77;;
15312;SDS011;7757;52.626;4.746;2023-04-03T06:26:49;10.60;;;1.70;;
15312;SDS011;7757;52.626;4.746;2023-04-03T06:29:36;9.82;;;1.75;;
15312;SDS011;7757;52.626;4.746;2023-04-03T06:32:23;11.48;;;1.92;;
15312;SDS011;7757;52.626;4.746;2023-04-03T06:35:09;10.02;;;1.60;;
15312;SDS011;7757;52.626;4.746;2023-04-03T06:37:54;13.13;;;2.20;;
15312;SDS011;7757;52.626;4.746;2023-04-03T06:40:40;8.95;;;1.40;;
15312;SDS011;7757;52.626;4.746;2023-04-03T06:43:26;6.47;;;1.50;;
15312;SDS011;7757;52.626;4.746;2023-04-03T06:46:14;9.77;;;1.30;;
15312;SDS011;7757;52.626;4.746;2023-04-03T06:49:02;6.28;;;1.33;;
15312;SDS011;7757;52.626;4.746;2023-04-03T06:51:48;6.70;;;1.48;;
15312;SDS011;7757;52.626;4.746;2023-04-03T06:54:33;5.65;;;1.40;;
15312;SDS011;7757;52.626;4.746;2023-04-03T06:57:19;10.52;;;1.35;;
15312;SDS011;7757;52.626;4.746;2023-04-03T07:00:05;10.80;;;1.65;;
15312;SDS011;7757;52.626;4.746;2023-04-03T07:02:52;8.00;;;1.67;;
15312;SDS011;7757;52.626;4.746;2023-04-03T07:05:41;6.72;;;1.30;;
15312;SDS011;7757;52.626;4.746;2023-04-03T07:08:28;7.70;;;1.58;;
15312;SDS011;7757;52.626;4.746;2023-04-03T07:11:13;9.73;;;1.75;;
15312;SDS011;7757;52.626;4.746;2023-04-03T07:14:01;14.93;;;1.95;;
15312;SDS011;7757;52.626;4.746;2023-04-03T07:16:47;8.45;;;1.52;;
15312;SDS011;7757;52.626;4.746;2023-04-03T07:19:32;6.32;;;1.38;;
15312;SDS011;7757;52.626;4.746;2023-04-03T07:22:19;5.93;;;1.30;;
15312;SDS011;7757;52.626;4.746;2023-04-03T07:25:05;5.90;;;1.30;;
15312;SDS011;7757;52.626;4.746;2023-04-03T07:27:51;8.05;;;1.20;;
15312;SDS011;7757;52.626;4.746;2023-04-03T07:30:42;6.22;;;1.40;;
15312;SDS011;7757;52.626;4.746;2023-04-03T07:33:28;4.43;;;1.23;;
15312;SDS011;7757;52.626;4.746;2023-04-03T07:36:16;6.30;;;1.38;;
15312;SDS011;7757;52.626;4.746;2023-04-03T07:39:04;8.90;;;1.35;;
15312;SDS011;7757;52.626;4.746;2023-04-03T07:41:50;10.30;;;1.50;;
15312;SDS011;7757;52.626;4.746;2023-04-03T07:44:36;8.27;;;1.77;;
15312;SDS011;7757;52.626;4.746;2023-04-03T07:47:21;6.25;;;1.50;;
15312;SDS011;7757;52.626;4.746;2023-04-03T07:50:07;6.97;;;1.40;;
15312;SDS011;7757;52.626;4.746;2023-04-03T07:52:53;4.35;;;1.30;;
15312;SDS011;7757;52.626;4.746;2023-04-03T07:55:42;6.05;;;1.30;;
15312;SDS011;7757;52.626;4.746;2023-04-03T07:58:28;12.52;;;1.35;;
15312;SDS011;7757;52.626;4.746;2023-04-03T08:01:14;7.30;;;1.67;;
15312;SDS011;7757;52.626;4.746;2023-04-03T08:04:00;6.53;;;1.38;;
15312;SDS011;7757;52.626;4.746;2023-04-03T08:06:45;4.75;;;1.10;;
15312;SDS011;7757;52.626;4.746;2023-04-03T08:09:31;6.05;;;1.30;;
15312;SDS011;7757;52.626;4.746;2023-04-03T08:12:17;9.32;;;1.30;;
15312;SDS011;7757;52.626;4.746;2023-04-03T08:15:03;7.97;;;1.55;;
15312;SDS011;7757;52.626;4.746;2023-04-03T08:17:49;5.18;;;1.20;;
15312;SDS011;7757;52.626;4.746;2023-04-03T08:20:34;7.50;;;1.40;;
15312;SDS011;7757;52.626;4.746;2023-04-03T08:23:20;7.63;;;1.30;;
15312;SDS011;7757;52.626;4.746;2023-04-03T08:26:06;6.25;;;1.38;;
15312;SDS011;7757;52.626;4.746;2023-04-03T08:28:54;8.63;;;1.23;;
15312;SDS011;7757;52.626;4.746;2023-04-03T08:31:39;7.70;;;1.35;;
15312;SDS011;7757;52.626;4.746;2023-04-03T08:34:24;5.25;;;0.95;;
15312;SDS011;7757;52.626;4.746;2023-04-03T08:37:10;7.22;;;1.60;;
15312;SDS011;7757;52.626;4.746;2023-04-03T08:39:55;11.45;;;1.40;;
15312;SDS011;7757;52.626;4.746;2023-04-03T08:42:43;10.30;;;1.45;;
15312;SDS011;7757;52.626;4.746;2023-04-03T08:45:41;7.70;;;1.30;;
15312;SDS011;7757;52.626;4.746;2023-04-03T08:48:29;5.68;;;1.30;;
15312;SDS011;7757;52.626;4.746;2023-04-03T08:51:19;9.13;;;1.42;;
15312;SDS011;7757;52.626;4.746;2023-04-03T08:54:06;8.65;;;1.40;;
15312;SDS011;7757;52.626;4.746;2023-04-03T08:57:04;10.27;;;1.83;;
15312;SDS011;7757;52.626;4.746;2023-04-03T08:59:50;7.50;;;1.40;;
15312;SDS011;7757;52.626;4.746;2023-04-03T09:02:39;11.07;;;1.80;;
15312;SDS011;7757;52.626;4.746;2023-04-03T09:05:31;11.27;;;1.80;;
15312;SDS011;7757;52.626;4.746;2023-04-03T09:08:24;7.57;;;1.45;;
15312;SDS011;7757;52.626;4.746;2023-04-03T09:11:14;9.45;;;1.70;;
15312;SDS011;7757;52.626;4.746;2023-04-03T09:14:07;9.43;;;1.58;;
15312;SDS011;7757;52.626;4.746;2023-04-03T09:17:02;7.40;;;1.40;;
15312;SDS011;7757;52.626;4.746;2023-04-03T09:19:51;9.85;;;1.50;;
15312;SDS011;7757;52.626;4.746;2023-04-03T09:22:43;7.43;;;1.40;;
15312;SDS011;7757;52.626;4.746;2023-04-03T09:25:31;6.78;;;1.40;;
15312;SDS011;7757;52.626;4.746;2023-04-03T09:28:19;6.30;;;1.27;;
15312;SDS011;7757;52.626;4.746;2023-04-03T09:31:05;7.07;;;1.40;;
15312;SDS011;7757;52.626;4.746;2023-04-03T09:34:01;7.47;;;1.30;;
15312;SDS011;7757;52.626;4.746;2023-04-03T09:36:52;9.77;;;1.42;;
15312;SDS011;7757;52.626;4.746;2023-04-03T09:39:48;5.40;;;1.25;;
15312;SDS011;7757;52.626;4.746;2023-04-03T09:42:35;10.40;;;1.38;;
15312;SDS011;7757;52.626;4.746;2023-04-03T09:45:27;4.70;;;1.20;;
15312;SDS011;7757;52.626;4.746;2023-04-03T09:48:15;4.90;;;1.23;;
15312;SDS011;7757;52.626;4.746;2023-04-03T09:51:02;11.80;;;1.60;;
15312;SDS011;7757;52.626;4.746;2023-04-03T09:53:49;6.75;;;1.15;;
15312;SDS011;7757;52.626;4.746;2023-04-03T09:56:35;6.68;;;1.20;;
15312;SDS011;7757;52.626;4.746;2023-04-03T09:59:20;5.45;;;1.25;;
15312;SDS011;7757;52.626;4.746;2023-04-03T10:02:17;4.88;;;1.17;;
15312;SDS011;7757;52.626;4.746;2023-04-03T10:08:24;6.70;;;1.17;;
15312;SDS011;7757;52.626;4.746;2023-04-03T10:11:15;7.40;;;1.30;;
15312;SDS011;7757;52.626;4.746;2023-04-03T10:14:02;8.25;;;1.40;;
15312;SDS011;7757;52.626;4.746;2023-04-03T10:16:51;6.35;;;1.30;;
15312;SDS011;7757;52.626;4.746;2023-04-03T10:19:43;4.63;;;1.20;;
15312;SDS011;7757;52.626;4.746;2023-04-03T10:22:36;4.97;;;1.30;;
15312;SDS011;7757;52.626;4.746;2023-04-03T10:25:28;4.68;;;1.20;;
15312;SDS011;7757;52.626;4.746;2023-04-03T10:28:22;7.57;;;1.33;;
15312;SDS011;7757;52.626;4.746;2023-04-03T10:31:13;4.03;;;1.00;;
15312;SDS011;7757;52.626;4.746;2023-04-03T10:34:04;5.07;;;1.10;;
15312;SDS011;7757;52.626;4.746;2023-04-03T10:36:53;7.55;;;1.13;;
15312;SDS011;7757;52.626;4.746;2023-04-03T10:39:46;11.80;;;1.45;;
15312;SDS011;7757;52.626;4.746;2023-04-03T10:42:39;5.97;;;1.10;;
15312;SDS011;7757;52.626;4.746;2023-04-03T10:45:35;5.82;;;1.02;;
15312;SDS011;7757;52.626;4.746;2023-04-03T10:51:45;5.03;;;1.20;;
15312;SDS011;7757;52.626;4.746;2023-04-03T10:54:34;5.38;;;1.10;;
15312;SDS011;7757;52.626;4.746;2023-04-03T10:57:23;3.95;;;0.95;;
15312;SDS011;7757;52.626;4.746;2023-04-03T11:00:13;6.53;;;1.40;;
15312;SDS011;7757;52.626;4.746;2023-04-03T11:03:05;2.53;;;0.90;;
15312;SDS011;7757;52.626;4.746;2023-04-03T11:05:56;4.43;;;1.10;;
15312;SDS011;7757;52.626;4.746;2023-04-03T11:08:46;2.33;;;0.90;;
15312;SDS011;7757;52.626;4.746;2023-04-03T11:11:39;4.45;;;1.10;;
15312;SDS011;7757;52.626;4.746;2023-04-03T11:14:26;4.97;;;1.00;;
15312;SDS011;7757;52.626;4.746;2023-04-03T11:17:19;5.00;;;1.10;;
15312;SDS011;7757;52.626;4.746;2023-04-03T11:20:16;3.97;;;1.10;;
15312;SDS011;7757;52.626;4.746;2023-04-03T11:23:04;5.70;;;1.10;;
15312;SDS011;7757;52.626;4.746;2023-04-03T11:25:56;1.35;;;0.57;;
15312;SDS011;7757;52.626;4.746;2023-04-03T11:28:52;4.20;;;0.98;;
15312;SDS011;7757;52.626;4.746;2023-04-03T11:31:41;4.20;;;1.02;;
15312;SDS011;7757;52.626;4.746;2023-04-03T11:34:42;5.22;;;1.10;;
15312;SDS011;7757;52.626;4.746;2023-04-03T11:37:31;3.50;;;0.90;;
15312;SDS011;7757;52.626;4.746;2023-04-03T11:40:21;3.65;;;0.90;;
15312;SDS011;7757;52.626;4.746;2023-04-03T11:43:17;3.83;;;0.95;;
15312;SDS011;7757;52.626;4.746;2023-04-03T11:46:07;4.05;;;1.10;;
15312;SDS011;7757;52.626;4.746;2023-04-03T11:48:54;3.47;;;1.00;;
15312;SDS011;7757;52.626;4.746;2023-04-03T11:51:44;5.15;;;1.10;;
15312;SDS011;7757;52.626;4.746;2023-04-03T11:54:49;5.35;;;1.10;;
15312;SDS011;7757;52.626;4.746;2023-04-03T12:06:59;4.13;;;0.98;;
15312;SDS011;7757;52.626;4.746;2023-04-03T12:10:01;3.28;;;0.90;;
15312;SDS011;7757;52.626;4.746;2023-04-03T12:13:00;4.00;;;1.00;;
15312;SDS011;7757;52.626;4.746;2023-04-03T12:15:51;6.38;;;1.45;;
15312;SDS011;7757;52.626;4.746;2023-04-03T12:18:41;2.00;;;0.70;;
15312;SDS011;7757;52.626;4.746;2023-04-03T12:24:51;5.20;;;0.93;;
15312;SDS011;7757;52.626;4.746;2023-04-03T12:27:40;4.22;;;1.17;;
15312;SDS011;7757;52.626;4.746;2023-04-03T12:30:27;3.97;;;0.93;;
15312;SDS011;7757;52.626;4.746;2023-04-03T12:33:20;4.82;;;1.00;;
15312;SDS011;7757;52.626;4.746;2023-04-03T12:36:13;6.72;;;1.23;;
15312;SDS011;7757;52.626;4.746;2023-04-03T12:45:43;5.25;;;1.02;;
15312;SDS011;7757;52.626;4.746;2023-04-03T12:48:33;5.15;;;1.10;;
15312;SDS011;7757;52.626;4.746;2023-04-03T12:51:26;3.53;;;1.10;;
15312;SDS011;7757;52.626;4.746;2023-04-03T12:54:20;3.50;;;0.90;;
15312;SDS011;7757;52.626;4.746;2023-04-03T12:57:08;3.60;;;0.98;;
15312;SDS011;7757;52.626;4.746;2023-04-03T12:59:56;2.97;;;0.80;;
15312;SDS011;7757;52.626;4.746;2023-04-03T13:02:43;4.25;;;0.95;;
15312;SDS011;7757;52.626;4.746;2023-04-03T13:05:30;6.25;;;0.90;;
15312;SDS011;7757;52.626;4.746;2023-04-03T13:08:16;4.55;;;1.30;;
15312;SDS011;7757;52.626;4.746;2023-04-03T13:11:05;5.25;;;1.00;;
15312;SDS011;7757;52.626;4.746;2023-04-03T13:13:56;4.38;;;0.90;;
15312;SDS011;7757;52.626;4.746;2023-04-03T13:16:53;2.63;;;0.80;;
15312;SDS011;7757;52.626;4.746;2023-04-03T13:19:40;3.42;;;1.00;;
15312;SDS011;7757;52.626;4.746;2023-04-03T13:22:27;4.07;;;0.98;;
15312;SDS011;7757;52.626;4.746;2023-04-03T13:25:17;3.60;;;1.10;;
15312;SDS011;7757;52.626;4.746;2023-04-03T13:28:05;5.95;;;1.30;;
15312;SDS011;7757;52.626;4.746;2023-04-03T13:31:02;4.40;;;0.82;;
15312;SDS011;7757;52.626;4.746;2023-04-03T13:33:56;3.08;;;0.93;;
15312;SDS011;7757;52.626;4.746;2023-04-03T13:36:44;3.78;;;0.88;;
15312;SDS011;7757;52.626;4.746;2023-04-03T13:39:39;4.95;;;1.02;;
15312;SDS011;7757;52.626;4.746;2023-04-03T13:42:25;4.68;;;1.05;;
15312;SDS011;7757;52.626;4.746;2023-04-03T13:45:19;2.55;;;0.82;;
15312;SDS011;7757;52.626;4.746;2023-04-03T13:48:09;5.28;;;1.08;;
15312;SDS011;7757;52.626;4.746;2023-04-03T13:51:02;3.15;;;0.80;;
15312;SDS011;7757;52.626;4.746;2023-04-03T13:53:52;4.78;;;0.75;;
15312;SDS011;7757;52.626;4.746;2023-04-03T13:56:39;3.25;;;0.80;;
15312;SDS011;7757;52.626;4.746;2023-04-03T13:59:27;5.63;;;1.08;;
15312;SDS011;7757;52.626;4.746;2023-04-03T14:02:17;3.53;;;0.98;;
15312;SDS011;7757;52.626;4.746;2023-04-03T14:05:06;4.63;;;1.10;;
15312;SDS011;7757;52.626;4.746;2023-04-03T14:07:53;4.40;;;0.93;;
15312;SDS011;7757;52.626;4.746;2023-04-03T14:10:39;6.53;;;1.20;;
15312;SDS011;7757;52.626;4.746;2023-04-03T14:13:25;3.42;;;0.93;;
15312;SDS011;7757;52.626;4.746;2023-04-03T14:16:14;4.15;;;1.05;;
15312;SDS011;7757;52.626;4.746;2023-04-03T14:19:01;5.70;;;1.10;;
15312;SDS011;7757;52.626;4.746;2023-04-03T14:21:47;5.57;;;1.10;;
15312;SDS011;7757;52.626;4.746;2023-04-03T14:24:34;8.60;;;1.13;;
15312;SDS011;7757;52.626;4.746;2023-04-03T14:27:20;4.53;;;1.20;;
15312;SDS011;7757;52.626;4.746;2023-04-03T14:30:08;5.82;;;0.90;;
15312;SDS011;7757;52.626;4.746;2023-04-03T14:32:58;4.95;;;1.30;;
15312;SDS011;7757;52.626;4.746;2023-04-03T14:35:45;2.17;;;0.85;;
15312;SDS011;7757;52.626;4.746;2023-04-03T14:38:31;2.67;;;0.80;;
15312;SDS011;7757;52.626;4.746;2023-04-03T14:41:18;3.72;;;0.80;;
15312;SDS011;7757;52.626;4.746;2023-04-03T14:44:06;4.38;;;1.08;;
15312;SDS011;7757;52.626;4.746;2023-04-03T14:46:51;2.92;;;0.80;;
15312;SDS011;7757;52.626;4.746;2023-04-03T14:49:36;5.90;;;1.20;;
15312;SDS011;7757;52.626;4.746;2023-04-03T14:52:23;5.80;;;1.10;;
15312;SDS011;7757;52.626;4.746;2023-04-03T14:55:11;3.67;;;0.95;;
15312;SDS011;7757;52.626;4.746;2023-04-03T14:58:00;6.88;;;1.00;;
15312;SDS011;7757;52.626;4.746;2023-04-03T15:00:46;3.75;;;1.00;;
15312;SDS011;7757;52.626;4.746;2023-04-03T15:03:32;4.80;;;1.00;;
15312;SDS011;7757;52.626;4.746;2023-04-03T15:06:18;4.78;;;1.10;;
15312;SDS011;7757;52.626;4.746;2023-04-03T15:09:04;5.10;;;1.00;;
15312;SDS011;7757;52.626;4.746;2023-04-03T15:11:49;4.68;;;1.00;;
15312;SDS011;7757;52.626;4.746;2023-04-03T15:14:37;4.05;;;0.90;;
15312;SDS011;7757;52.626;4.746;2023-04-03T15:17:22;3.30;;;1.00;;
15312;SDS011;7757;52.626;4.746;2023-04-03T15:20:12;4.13;;;0.90;;
15312;SDS011;7757;52.626;4.746;2023-04-03T15:22:59;4.57;;;1.10;;
15312;SDS011;7757;52.626;4.746;2023-04-03T15:25:46;3.65;;;1.02;;
15312;SDS011;7757;52.626;4.746;2023-04-03T15:28:35;2.75;;;0.88;;
15312;SDS011;7757;52.626;4.746;2023-04-03T15:31:23;2.85;;;0.90;;
15312;SDS011;7757;52.626;4.746;2023-04-03T15:34:09;4.75;;;0.88;;
15312;SDS011;7757;52.626;4.746;2023-04-03T15:36:54;4.15;;;1.00;;
15312;SDS011;7757;52.626;4.746;2023-04-03T15:39:40;2.17;;;0.80;;
15312;SDS011;7757;52.626;4.746;2023-04-03T15:42:25;3.17;;;0.90;;
15312;SDS011;7757;52.626;4.746;2023-04-03T15:45:11;3.80;;;1.08;;
15312;SDS011;7757;52.626;4.746;2023-04-03T15:47:58;4.53;;;1.10;;
15312;SDS011;7757;52.626;4.746;2023-04-03T15:50:43;3.53;;;1.00;;
15312;SDS011;7757;52.626;4.746;2023-04-03T15:53:29;3.50;;;0.88;;
15312;SDS011;7757;52.626;4.746;2023-04-03T15:56:14;3.78;;;0.93;;
15312;SDS011;7757;52.626;4.746;2023-04-03T15:58:59;3.20;;;0.80;;
15312;SDS011;7757;52.626;4.746;2023-04-03T16:01:45;3.97;;;1.05;;
15312;SDS011;7757;52.626;4.746;2023-04-03T16:04:32;7.35;;;1.20;;
15312;SDS011;7757;52.626;4.746;2023-04-03T16:07:18;6.47;;;1.20;;
15312;SDS011;7757;52.626;4.746;2023-04-03T16:10:04;5.70;;;1.20;;
15312;SDS011;7757;52.626;4.746;2023-04-03T16:12:49;6.18;;;1.20;;
15312;SDS011;7757;52.626;4.746;2023-04-03T16:15:35;5.53;;;1.15;;
15312;SDS011;7757;52.626;4.746;2023-04-03T16:18:20;5.53;;;1.02;;
15312;SDS011;7757;52.626;4.746;2023-04-03T16:21:07;5.03;;;1.40;;
15312;SDS011;7757;52.626;4.746;2023-04-03T16:23:55;5.32;;;1.25;;
15312;SDS011;7757;52.626;4.746;2023-04-03T16:26:42;7.97;;;1.15;;
15312;SDS011;7757;52.626;4.746;2023-04-03T16:29:27;7.25;;;1.23;;
15312;SDS011;7757;52.626;4.746;2023-04-03T16:32:13;9.73;;;1.52;;
15312;SDS011;7757;52.626;4.746;2023-04-03T16:34:59;28.92;;;2.53;;
15312;SDS011;7757;52.626;4.746;2023-04-03T16:37:47;14.20;;;1.77;;
15312;SDS011;7757;52.626;4.746;2023-04-03T16:40:32;12.75;;;1.80;;
15312;SDS011;7757;52.626;4.746;2023-04-03T16:43:18;15.73;;;1.70;;
15312;SDS011;7757;52.626;4.746;2023-04-03T16:46:03;15.32;;;1.70;;
15312;SDS011;7757;52.626;4.746;2023-04-03T16:48:49;8.73;;;1.52;;
15312;SDS011;7757;52.626;4.746;2023-04-03T16:51:34;13.63;;;1.77;;
15312;SDS011;7757;52.626;4.746;2023-04-03T16:54:21;12.80;;;1.83;;
15312;SDS011;7757;52.626;4.746;2023-04-03T16:57:06;9.02;;;1.63;;
15312;SDS011;7757;52.626;4.746;2023-04-03T16:59:52;18.73;;;2.25;;
15312;SDS011;7757;52.626;4.746;2023-04-03T17:02:38;11.77;;;1.95;;
15312;SDS011;7757;52.626;4.746;2023-04-03T17:05:24;13.27;;;1.73;;
15312;SDS011;7757;52.626;4.746;2023-04-03T17:08:09;11.48;;;1.85;;
15312;SDS011;7757;52.626;4.746;2023-04-03T17:10:56;13.82;;;1.90;;
15312;SDS011;7757;52.626;4.746;2023-04-03T17:13:42;10.73;;;1.77;;
15312;SDS011;7757;52.626;4.746;2023-04-03T17:16:27;9.55;;;1.90;;
15312;SDS011;7757;52.626;4.746;2023-04-03T17:19:13;9.63;;;1.60;;
15312;SDS011;7757;52.626;4.746;2023-04-03T17:22:00;9.13;;;1.77;;
15312;SDS011;7757;52.626;4.746;2023-04-03T17:24:46;12.32;;;1.80;;
15312;SDS011;7757;52.626;4.746;2023-04-03T17:27:32;7.20;;;1.38;;
15312;SDS011;7757;52.626;4.746;2023-04-03T17:30:18;5.78;;;1.25;;
15312;SDS011;7757;52.626;4.746;2023-04-03T17:33:03;6.68;;;1.23;;